Time;durP1;ratioP1;P1;durP2;ratioP2;P2;SDS_P1;SDS_P2;PMS_P1;PMS_P2;Temp;Humidity;BMP_temperature;BMP_pressure;BME280_temperature;BME280_humidity;BME280_pressure;Samples;Min_cycle;Max_cycle;Signal;HPM_P1;HPM_P2
2022/03/22 00:00:48;;;;;;;4.38;1.60;;;25.00;99.90;;;;;;5093396;28;20024;-80
2022/03/22 00:03:15;;;;;;;4.28;1.25;;;25.00;99.90;;;;;;5092862;28;20459;-79
2022/03/22 00:05:44;;;;;;;6.93;1.50;;;25.20;99.90;;;;;;5093345;28;20381;-79
2022/03/22 00:08:12;;;;;;;3.00;1.00;;;25.20;99.90;;;;;;5092266;28;20039;-75
2022/03/22 00:10:39;;;;;;;2.40;1.05;;;25.20;99.90;;;;;;5091846;28;20039;-76
2022/03/22 00:13:07;;;;;;;4.03;1.33;;;25.40;99.90;;;;;;5091269;28;20110;-77
2022/03/22 00:15:35;;;;;;;3.50;1.08;;;25.60;99.90;;;;;;5091406;28;20051;-77
2022/03/22 00:18:03;;;;;;;4.25;1.55;;;25.60;99.90;;;;;;5092749;28;20396;-76
2022/03/22 00:20:30;;;;;;;4.38;1.48;;;25.40;99.90;;;;;;5091269;28;20081;-75
2022/03/22 00:22:59;;;;;;;4.57;1.50;;;25.70;99.90;;;;;;5092897;28;20392;-75
2022/03/22 00:25:26;;;;;;;5.20;1.45;;;26.00;99.90;;;;;;5092620;28;20073;-75
2022/03/22 00:27:54;;;;;;;5.82;1.40;;;25.90;99.90;;;;;;5092711;28;20016;-75
2022/03/22 00:30:22;;;;;;;4.05;1.40;;;26.10;99.90;;;;;;5091186;28;20031;-75
2022/03/22 00:32:54;;;;;;;4.68;1.60;;;26.30;99.90;;;;;;5092718;28;20101;-76
2022/03/22 00:35:26;;;;;;;4.03;1.38;;;26.30;99.90;;;;;;5092298;28;20048;-75
2022/03/22 00:37:56;;;;;;;3.83;1.75;;;26.40;99.90;;;;;;5092692;28;20028;-76
2022/03/22 00:40:25;;;;;;;4.85;1.30;;;26.60;99.90;;;;;;5092494;28;20032;-75
2022/03/22 00:42:53;;;;;;;7.25;1.48;;;26.70;99.90;;;;;;5093359;28;20035;-78
2022/03/22 00:45:23;;;;;;;3.42;1.30;;;26.70;99.90;;;;;;5092622;28;20028;-77
2022/03/22 00:47:52;;;;;;;3.70;1.70;;;26.80;99.90;;;;;;5092801;28;20514;-76
2022/03/22 00:50:22;;;;;;;3.72;1.20;;;26.80;99.90;;;;;;5092551;28;20077;-79
2022/03/22 00:52:50;;;;;;;3.47;1.27;;;27.10;99.90;;;;;;5091351;28;20020;-78
2022/03/22 00:55:21;;;;;;;3.85;1.30;;;27.10;99.90;;;;;;5092097;28;20040;-78
2022/03/22 00:57:54;;;;;;;4.07;1.50;;;27.20;99.90;;;;;;5092000;28;20052;-79
2022/03/22 01:00:26;;;;;;;2.92;1.63;;;27.30;99.90;;;;;;5090944;28;20028;-78
2022/03/22 01:02:56;;;;;;;3.53;1.48;;;27.30;99.90;;;;;;5090967;28;20024;-77
2022/03/22 01:05:25;;;;;;;4.80;1.33;;;27.40;99.90;;;;;;5092942;28;20016;-77
2022/03/22 01:08:05;;;;;;;5.53;1.65;;;27.20;99.90;;;;;;5091048;28;20434;-77
2022/03/22 01:10:34;;;;;;;4.78;1.27;;;27.30;99.90;;;;;;5092263;28;20377;-81
2022/03/22 01:13:02;;;;;;;3.47;1.25;;;27.50;99.90;;;;;;5090558;28;20069;-82
2022/03/22 01:15:34;;;;;;;2.67;1.27;;;27.60;99.90;;;;;;5092429;28;20028;-82
2022/03/22 01:18:07;;;;;;;4.03;1.55;;;27.80;99.90;;;;;;5090646;28;20019;-80
2022/03/22 01:20:37;;;;;;;6.30;1.85;;;27.70;99.90;;;;;;5091809;28;20028;-81
2022/03/22 01:23:05;;;;;;;;;;;27.90;99.90;;;;;;5075789;28;20024;-80
2022/03/22 01:25:34;;;;;;;9.80;2.13;;;27.80;99.90;;;;;;5094594;28;19954;-80
2022/03/22 01:28:04;;;;;;;6.47;1.60;;;27.90;99.90;;;;;;5096727;28;20038;-79
2022/03/22 01:30:32;;;;;;;5.78;1.52;;;27.80;99.90;;;;;;5095030;28;20028;-82
2022/03/22 01:33:00;;;;;;;4.95;2.20;;;28.10;99.90;;;;;;5096294;28;20522;-79
2022/03/22 01:35:28;;;;;;;6.40;1.95;;;28.10;99.90;;;;;;5096554;28;20036;-80
2022/03/22 01:37:56;;;;;;;6.88;1.73;;;28.00;99.90;;;;;;5097018;28;20418;-80
2022/03/22 01:40:26;;;;;;;8.15;1.55;;;28.00;99.90;;;;;;5095665;28;20476;-78
2022/03/22 01:42:54;;;;;;;8.80;1.70;;;27.90;99.90;;;;;;5096423;28;20020;-79
2022/03/22 01:45:21;;;;;;;6.68;1.70;;;28.00;99.90;;;;;;5094669;28;20036;-77
2022/03/22 01:47:50;;;;;;;5.75;1.60;;;28.00;99.90;;;;;;5094067;28;20119;-79
2022/03/22 01:50:22;;;;;;;6.13;2.10;;;27.80;99.90;;;;;;5095370;28;20055;-80
2022/03/22 01:52:50;;;;;;;7.85;2.38;;;27.80;99.90;;;;;;5095907;28;20455;-78
2022/03/22 01:55:20;;;;;;;7.13;2.28;;;27.90;99.90;;;;;;5095459;28;20028;-78
2022/03/22 01:57:48;;;;;;;6.60;1.88;;;28.20;99.90;;;;;;5094188;28;20477;-78
2022/03/22 02:00:19;;;;;;;8.40;1.95;;;28.20;99.90;;;;;;5094877;28;20488;-77
2022/03/22 02:05:56;;;;;;;5.93;1.40;;;27.80;99.90;;;;;;5097189;28;20077;-79
2022/03/22 02:08:29;;;;;;;6.25;1.40;;;28.00;99.90;;;;;;5096011;28;20022;-78
2022/03/22 02:10:59;;;;;;;6.72;1.50;;;28.00;99.90;;;;;;5094936;28;20395;-78
2022/03/22 02:13:31;;;;;;;6.47;1.95;;;28.00;99.90;;;;;;5095944;28;20024;-78
2022/03/22 02:16:01;;;;;;;8.40;1.52;;;28.00;99.90;;;;;;5095830;28;20024;-79
2022/03/22 02:18:29;;;;;;;5.15;1.60;;;27.90;99.90;;;;;;5094609;28;20028;-78
2022/03/22 02:20:58;;;;;;;5.05;1.20;;;28.00;99.90;;;;;;5096684;28;20050;-80
2022/03/22 02:23:46;;;;;;;5.88;1.73;;;28.10;99.90;;;;;;5095635;28;20042;-79
2022/03/22 02:26:13;;;;;;;5.45;1.10;;;28.30;99.90;;;;;;5095767;28;20016;-78
2022/03/22 02:28:42;;;;;;;6.55;1.45;;;28.20;99.90;;;;;;5093727;28;20549;-78
2022/03/22 02:31:09;;;;;;;6.55;1.45;;;28.30;99.90;;;;;;5094070;28;20076;-77
2022/03/22 02:33:41;;;;;;;5.32;1.30;;;28.40;99.90;;;;;;5094883;28;20507;-77
2022/03/22 02:36:09;;;;;;;8.55;1.30;;;28.40;99.90;;;;;;5093656;28;20492;-78
2022/03/22 02:38:37;;;;;;;4.95;1.58;;;28.40;99.90;;;;;;5093822;28;20036;-79
2022/03/22 02:41:08;;;;;;;5.85;1.50;;;28.20;99.90;;;;;;5094751;28;20043;-78
2022/03/22 02:43:36;;;;;;;7.18;1.63;;;28.10;99.90;;;;;;5095197;28;20476;-78
2022/03/22 02:46:03;;;;;;;6.03;1.38;;;28.20;99.90;;;;;;5095502;28;20413;-79
2022/03/22 02:48:30;;;;;;;3.92;1.10;;;28.40;99.90;;;;;;5094861;28;20017;-77
2022/03/22 02:50:58;;;;;;;4.95;1.50;;;28.50;99.90;;;;;;5095107;28;20043;-78
2022/03/22 02:53:25;;;;;;;5.35;1.50;;;28.50;99.90;;;;;;5095452;28;20024;-77
2022/03/22 02:55:52;;;;;;;6.93;1.75;;;28.50;99.90;;;;;;5095253;28;20055;-78
2022/03/22 02:58:20;;;;;;;5.38;1.60;;;28.50;99.90;;;;;;5093494;28;20034;-77
2022/03/22 03:00:47;;;;;;;6.63;1.70;;;28.40;99.90;;;;;;5093462;28;20452;-77
2022/03/22 03:03:15;;;;;;;9.15;1.40;;;28.40;99.90;;;;;;5094794;28;20023;-77
2022/03/22 03:05:42;;;;;;;4.10;1.20;;;28.60;99.90;;;;;;5094936;28;20027;-76
2022/03/22 03:08:09;;;;;;;7.95;1.48;;;28.60;99.90;;;;;;5093545;28;20024;-78
2022/03/22 03:10:37;;;;;;;3.95;1.38;;;28.60;99.90;;;;;;5094466;28;20542;-79
2022/03/22 03:13:05;;;;;;;6.97;1.55;;;28.60;99.90;;;;;;5094753;28;20499;-78
2022/03/22 03:15:33;;;;;;;5.93;1.58;;;28.60;99.90;;;;;;5094917;28;20024;-77
2022/03/22 03:18:00;;;;;;;6.78;1.27;;;28.60;99.90;;;;;;5093822;28;20389;-78
2022/03/22 03:20:28;;;;;;;7.28;1.52;;;28.70;99.90;;;;;;5094286;28;20028;-77
2022/03/22 03:22:56;;;;;;;6.22;1.50;;;28.70;99.90;;;;;;5094080;28;20017;-80
2022/03/22 03:25:23;;;;;;;6.28;1.60;;;28.60;99.90;;;;;;5094026;28;20488;-82
2022/03/22 03:27:51;;;;;;;5.00;1.48;;;28.90;99.90;;;;;;5093907;28;20107;-79
2022/03/22 03:30:18;;;;;;;7.30;1.60;;;28.90;99.90;;;;;;5092378;28;20066;-79
2022/03/22 03:32:46;;;;;;;6.82;1.85;;;28.70;99.90;;;;;;5092262;28;20031;-77
2022/03/22 03:35:13;;;;;;;5.28;1.58;;;28.20;99.90;;;;;;5093340;28;20048;-77
2022/03/22 03:37:44;;;;;;;6.95;1.73;;;28.30;99.90;;;;;;5093993;28;20024;-78
2022/03/22 03:40:12;;;;;;;6.03;1.70;;;28.40;99.90;;;;;;5093164;28;20028;-78
2022/03/22 03:42:44;;;;;;;6.97;1.50;;;28.40;99.90;;;;;;5094719;28;20024;-78
2022/03/22 03:48:01;;;;;;;11.43;2.20;;;28.50;99.90;;;;;;5093549;28;20047;-79
2022/03/22 03:50:28;;;;;;;5.40;1.58;;;28.60;99.90;;;;;;5093426;28;20024;-79
2022/03/22 03:52:56;;;;;;;4.72;1.73;;;28.50;99.90;;;;;;5092153;28;20436;-79
2022/03/22 03:55:23;;;;;;;6.57;1.60;;;28.40;99.90;;;;;;5093271;28;20023;-79
2022/03/22 03:57:51;;;;;;;6.22;1.63;;;28.40;99.90;;;;;;5092011;28;20392;-80
2022/03/22 04:00:19;;;;;;;6.40;1.60;;;28.40;99.90;;;;;;5092312;28;20491;-80
2022/03/22 04:02:46;;;;;;;3.80;1.40;;;28.60;99.90;;;;;;5093331;28;20024;-80
2022/03/22 04:05:14;;;;;;;7.72;1.50;;;28.70;99.90;;;;;;5091579;28;20472;-79
2022/03/22 04:07:41;;;;;;;6.63;1.48;;;28.80;99.90;;;;;;5091607;28;20438;-78
2022/03/22 04:10:09;;;;;;;4.43;1.33;;;29.10;99.90;;;;;;5091543;28;20480;-78
2022/03/22 04:12:44;;;;;;;5.65;1.50;;;29.00;99.90;;;;;;5093113;28;20116;-77
2022/03/22 04:15:12;;;;;;;7.00;1.83;;;29.00;99.90;;;;;;5094168;28;20019;-78
2022/03/22 04:17:39;;;;;;;7.97;2.03;;;29.00;99.90;;;;;;5094215;28;20543;-77
2022/03/22 04:20:08;;;;;;;4.90;1.48;;;29.00;99.90;;;;;;5092012;28;20055;-76
2022/03/22 04:22:36;;;;;;;5.22;1.55;;;28.90;99.90;;;;;;5092959;28;20537;-76
2022/03/22 04:25:04;;;;;;;5.22;1.52;;;28.80;99.90;;;;;;5093746;28;20434;-79
2022/03/22 04:33:02;;;;;;;5.85;1.60;;;28.90;99.90;;;;;;5097468;28;20030;-77
2022/03/22 04:35:30;;;;;;;4.57;1.40;;;28.90;99.90;;;;;;5092387;28;20059;-77
2022/03/22 04:37:58;;;;;;;5.70;1.55;;;29.10;99.90;;;;;;5091291;28;20039;-76
2022/03/22 04:40:26;;;;;;;6.93;1.98;;;29.00;99.90;;;;;;5091080;28;20020;-76
2022/03/22 04:42:53;;;;;;;7.57;1.70;;;29.10;99.90;;;;;;5090976;28;20020;-76
2022/03/22 04:45:21;;;;;;;4.68;1.48;;;29.30;99.90;;;;;;5092336;28;20492;-76
2022/03/22 04:47:49;;;;;;;5.90;1.60;;;29.40;99.90;;;;;;5092555;28;20016;-76
2022/03/22 04:50:18;;;;;;;4.55;1.90;;;29.40;99.90;;;;;;5092474;28;20024;-77
2022/03/22 04:56:43;;;;;;;8.13;1.92;;;29.20;99.90;;;;;;5092454;28;20450;-77
2022/03/22 04:58:37;;;;;;;9.18;2.22;;;29.00;99.90;;;;;;5093300;28;20089;-77
2022/03/22 05:01:05;;;;;;;7.15;1.95;;;28.90;99.90;;;;;;5095213;28;20484;-77
2022/03/22 05:03:32;;;;;;;7.25;2.13;;;28.90;99.90;;;;;;5095107;28;20020;-77
2022/03/22 05:08:45;;;;;;;4.53;1.50;;;29.10;99.90;;;;;;5096765;28;20553;-77
2022/03/22 05:11:12;;;;;;;8.32;1.95;;;29.20;99.90;;;;;;5095290;28;20032;-77
2022/03/22 05:13:39;;;;;;;5.05;1.90;;;29.10;99.90;;;;;;5096284;28;20025;-77
2022/03/22 05:16:07;;;;;;;4.78;1.45;;;28.80;99.90;;;;;;5096697;28;20020;-74
2022/03/22 05:18:36;;;;;;;7.00;1.80;;;28.50;99.90;;;;;;5096013;28;20020;-75
2022/03/22 05:21:07;;;;;;;7.05;1.88;;;28.40;99.90;;;;;;5094703;28;20028;-76
2022/03/22 05:23:35;;;;;;;6.82;2.42;;;28.60;99.90;;;;;;5096034;28;20044;-76
2022/03/22 05:26:06;;;;;;;6.05;2.20;;;28.40;99.90;;;;;;5096116;28;20471;-76
2022/03/22 05:28:34;;;;;;;4.80;1.77;;;28.30;99.90;;;;;;5095920;28;20023;-76
2022/03/22 05:31:01;;;;;;;5.68;2.03;;;28.30;99.90;;;;;;5095996;28;20438;-76
2022/03/22 05:33:28;;;;;;;6.50;2.10;;;28.20;99.90;;;;;;5094324;28;20060;-79
2022/03/22 05:35:56;;;;;;;6.13;1.98;;;28.10;99.90;;;;;;5094602;28;20115;-77
2022/03/22 05:38:27;;;;;;;5.57;2.25;;;27.90;99.90;;;;;;5095730;28;20024;-76
2022/03/22 05:40:56;;;;;;;6.40;2.40;;;27.90;99.90;;;;;;5094466;28;20052;-74
2022/03/22 05:43:26;;;;;;;4.75;1.60;;;27.90;99.90;;;;;;5095726;28;20024;-75
2022/03/22 05:45:53;;;;;;;;;;;28.00;99.90;;;;;;5096152;28;20388;-74
2022/03/22 05:48:21;;;;;;;4.88;1.83;;;27.90;99.90;;;;;;5094364;28;19989;-75
2022/03/22 05:50:48;;;;;;;5.30;1.70;;;27.90;99.90;;;;;;5094271;28;20036;-75
2022/03/22 05:53:16;;;;;;;5.20;1.73;;;27.90;99.90;;;;;;5095483;28;20385;-75
2022/03/22 05:55:44;;;;;;;6.97;2.10;;;27.80;99.90;;;;;;5094237;28;20023;-75
2022/03/22 05:58:11;;;;;;;7.10;1.90;;;27.80;99.90;;;;;;5095489;28;20094;-75
2022/03/22 06:00:39;;;;;;;6.72;2.20;;;27.90;99.90;;;;;;5093821;28;20020;-76
2022/03/22 06:03:06;;;;;;;5.63;2.10;;;27.70;99.90;;;;;;5094000;28;20500;-76
2022/03/22 06:05:34;;;;;;;5.70;2.38;;;27.50;99.90;;;;;;5093799;28;20051;-76
2022/03/22 06:08:01;;;;;;;6.32;2.28;;;27.40;99.90;;;;;;5095206;28;20433;-75
2022/03/22 06:10:28;;;;;;;6.22;1.98;;;27.40;99.90;;;;;;5094070;28;20058;-76
2022/03/22 06:12:57;;;;;;;4.78;1.75;;;27.40;99.90;;;;;;5093803;28;20480;-76
2022/03/22 06:15:29;;;;;;;6.90;1.77;;;27.40;99.90;;;;;;5095054;28;20028;-76
2022/03/22 06:18:04;;;;;;;5.07;1.60;;;27.40;99.90;;;;;;5093567;28;20111;-76
2022/03/22 06:20:37;;;;;;;7.72;2.47;;;27.30;99.90;;;;;;5094939;28;20020;-78
2022/03/22 06:23:10;;;;;;;9.20;2.33;;;27.30;99.90;;;;;;5093456;28;20024;-74
2022/03/22 06:25:39;;;;;;;7.85;1.63;;;27.30;99.90;;;;;;5093575;28;20396;-75
2022/03/22 06:28:09;;;;;;;7.50;2.03;;;27.30;99.90;;;;;;5093709;28;20026;-75
2022/03/22 06:30:37;;;;;;;5.10;1.77;;;27.10;99.90;;;;;;5094669;28;20495;-75
2022/03/22 06:33:13;;;;;;;9.10;2.28;;;27.00;99.90;;;;;;5093493;28;20073;-75
2022/03/22 06:35:42;;;;;;;9.70;2.13;;;26.90;99.90;;;;;;5093335;28;20052;-77
2022/03/22 06:38:10;;;;;;;5.82;2.03;;;26.70;99.90;;;;;;5093404;28;20076;-77
2022/03/22 06:40:39;;;;;;;8.95;1.95;;;26.70;99.90;;;;;;5094356;28;20073;-74
2022/03/22 06:43:11;;;;;;;6.97;2.42;;;26.60;99.90;;;;;;5093225;28;20020;-77
2022/03/22 06:45:39;;;;;;;6.95;2.13;;;26.40;99.90;;;;;;5094482;28;20416;-76
2022/03/22 06:48:07;;;;;;;6.13;1.90;;;26.20;99.90;;;;;;5094773;28;20050;-76
2022/03/22 06:50:36;;;;;;;5.55;1.90;;;26.20;99.90;;;;;;5094752;28;20028;-79
2022/03/22 06:53:05;;;;;;;6.25;2.15;;;26.20;99.90;;;;;;5095020;28;20107;-76
2022/03/22 06:55:33;;;;;;;7.18;2.45;;;26.20;99.90;;;;;;5095009;28;20066;-77
2022/03/22 06:58:01;;;;;;;11.23;2.97;;;26.10;99.90;;;;;;5094268;28;20048;-78
2022/03/22 07:00:31;;;;;;;9.48;2.60;;;26.00;99.90;;;;;;5093646;28;20486;-80
2022/03/22 07:03:02;;;;;;;9.07;2.70;;;25.90;99.90;;;;;;5093096;28;20115;-78
2022/03/22 07:05:30;;;;;;;8.18;2.20;;;25.80;99.90;;;;;;5093215;28;20031;-78
2022/03/22 07:07:58;;;;;;;8.02;2.25;;;25.80;99.90;;;;;;5094887;28;20024;-78
2022/03/22 07:10:26;;;;;;;7.93;2.42;;;25.70;99.90;;;;;;5093265;28;20564;-77
2022/03/22 07:12:55;;;;;;;7.43;1.90;;;25.70;99.90;;;;;;5095770;28;20039;-79
2022/03/22 07:15:35;;;;;;;5.93;1.95;;;25.60;99.90;;;;;;5095614;28;20028;-81
2022/03/22 07:18:05;;;;;;;8.32;2.22;;;25.50;99.90;;;;;;5095933;28;20028;-82
2022/03/22 07:20:33;;;;;;;7.90;2.10;;;25.80;99.90;;;;;;5095307;28;20028;-81
2022/03/22 07:23:01;;;;;;;7.60;2.08;;;25.70;99.90;;;;;;5094094;28;20261;-83
2022/03/22 07:25:29;;;;;;;10.45;2.63;;;25.80;99.90;;;;;;5093108;28;20063;-83
2022/03/22 07:27:57;;;;;;;10.07;2.58;;;25.80;99.90;;;;;;5093192;28;20055;-83
2022/03/22 07:30:25;;;;;;;7.38;2.40;;;25.40;99.90;;;;;;5093088;28;20089;-85
2022/03/22 07:32:52;;;;;;;9.45;2.15;;;25.20;99.90;;;;;;5093916;28;20020;-83
2022/03/22 07:35:19;;;;;;;12.40;3.03;;;25.00;99.90;;;;;;5094362;28;20036;-84
2022/03/22 07:37:48;;;;;;;9.77;2.10;;;24.80;99.90;;;;;;5094035;28;20032;-84
2022/03/22 07:40:16;;;;;;;9.43;2.08;;;24.70;99.90;;;;;;5094338;28;20016;-84
2022/03/22 07:42:44;;;;;;;8.38;2.42;;;24.50;99.90;;;;;;5094608;28;20027;-85
2022/03/22 07:45:12;;;;;;;9.98;2.65;;;24.40;99.90;;;;;;5095747;28;20031;-84
2022/03/22 07:47:41;;;;;;;12.07;2.92;;;24.30;99.90;;;;;;5094877;28;20016;-84
2022/03/22 07:53:06;;;;;;;8.32;2.88;;;24.20;99.90;;;;;;5094090;28;20032;-85
2022/03/22 07:55:38;;;;;;;7.32;2.38;;;24.10;99.90;;;;;;5095128;28;20020;-85
2022/03/22 07:58:07;;;;;;;8.52;2.53;;;23.90;99.90;;;;;;5094486;28;20074;-85
2022/03/22 08:00:41;;;;;;;12.50;3.08;;;23.90;99.90;;;;;;5094857;28;20115;-84
2022/03/22 08:03:13;;;;;;;9.68;2.80;;;23.90;99.90;;;;;;5095325;28;20032;-82
2022/03/22 08:05:42;;;;;;;7.95;2.40;;;23.80;99.90;;;;;;5092144;28;20016;-84
2022/03/22 08:08:10;;;;;;;10.07;2.50;;;23.70;99.90;;;;;;5092124;28;20024;-84
2022/03/22 08:10:37;;;;;;;11.73;2.67;;;23.70;99.90;;;;;;5075062;28;20044;-84
2022/03/22 08:13:06;;;;;;;8.90;2.53;;;23.60;99.90;;;;;;5093304;28;20023;-83
2022/03/22 08:15:33;;;;;;;7.35;2.40;;;23.50;99.90;;;;;;5094695;28;20399;-84
2022/03/22 08:18:01;;;;;;;11.60;2.42;;;23.40;99.90;;;;;;5092029;28;20020;-84
2022/03/22 08:20:30;;;;;;;13.73;2.60;;;23.40;99.90;;;;;;5093809;28;20070;-82
2022/03/22 08:23:04;;;;;;;14.25;3.08;;;23.40;99.90;;;;;;5091647;28;20480;-83
2022/03/22 08:25:39;;;;;;;10.63;2.70;;;23.30;99.90;;;;;;5093120;28;20023;-79
2022/03/22 08:28:11;;;;;;;8.20;2.90;;;23.30;99.90;;;;;;5093289;28;20071;-86
2022/03/22 08:30:40;;;;;;;12.40;2.60;;;23.20;99.90;;;;;;5092618;28;20127;-83
2022/03/22 08:33:09;;;;;;;13.02;3.15;;;23.20;99.90;;;;;;5092391;28;20071;-83
2022/03/22 08:35:41;;;;;;;8.30;2.90;;;23.10;99.90;;;;;;5093431;28;20067;-82
2022/03/22 08:38:10;;;;;;;10.27;3.13;;;23.10;99.90;;;;;;5092476;28;20453;-84
2022/03/22 08:40:39;;;;;;;10.20;3.20;;;23.00;99.90;;;;;;5094742;28;20425;-83
2022/03/22 08:43:07;;;;;;;11.23;3.00;;;23.00;99.90;;;;;;5093819;28;20020;-85
2022/03/22 08:45:36;;;;;;;8.10;2.85;;;23.00;99.90;;;;;;5092586;28;20016;-83
2022/03/22 08:48:09;;;;;;;7.57;2.60;;;22.90;99.90;;;;;;5094051;28;20514;-84
2022/03/22 08:50:42;;;;;;;12.50;3.17;;;22.90;99.90;;;;;;5090956;28;20028;-85
2022/03/22 08:53:10;;;;;;;11.30;2.90;;;22.90;99.90;;;;;;5090867;28;20032;-83
2022/03/22 08:55:38;;;;;;;12.02;3.15;;;22.90;99.90;;;;;;5091443;28;20082;-82
2022/03/22 08:58:06;;;;;;;11.77;2.85;;;22.90;99.90;;;;;;5076724;28;20059;-85
2022/03/22 09:00:35;;;;;;;8.95;3.00;;;22.80;99.90;;;;;;5076370;28;20028;-84
2022/03/22 09:03:04;;;;;;;12.57;2.83;;;22.70;99.90;;;;;;5091710;28;20061;-83
2022/03/22 09:08:17;;;;;;;15.82;4.28;;;22.80;99.90;;;;;;5092723;28;20055;-84
2022/03/22 09:10:46;;;;;;;9.30;3.10;;;22.70;99.90;;;;;;5093190;28;20024;-85
2022/03/22 09:13:14;;;;;;;9.65;3.08;;;22.70;99.90;;;;;;5094176;28;20031;-84
2022/03/22 09:15:44;;;;;;;8.73;2.55;;;22.60;99.90;;;;;;5093946;28;20210;-85
2022/03/22 09:18:14;;;;;;;13.57;3.43;;;22.60;99.90;;;;;;5092625;28;20051;-83
2022/03/22 09:20:43;;;;;;;8.15;2.53;;;22.60;99.90;;;;;;5091386;28;20412;-82
2022/03/22 09:23:11;;;;;;;8.77;3.17;;;22.60;99.90;;;;;;5092381;28;20073;-83
2022/03/22 09:25:40;;;;;;;10.07;3.15;;;22.60;99.90;;;;;;5090676;28;20017;-81
2022/03/22 09:28:08;;;;;;;8.43;3.05;;;22.60;99.90;;;;;;5092750;28;20055;-85
2022/03/22 09:30:37;;;;;;;9.60;2.75;;;22.60;99.90;;;;;;5091783;28;20401;-84
2022/03/22 09:33:07;;;;;;;9.80;4.03;;;22.50;99.90;;;;;;5092222;28;20028;-83
2022/03/22 09:35:36;;;;;;;11.00;3.58;;;22.50;99.90;;;;;;5092957;28;20083;-83
2022/03/22 09:38:04;;;;;;;11.18;3.10;;;22.50;99.90;;;;;;5093072;28;20050;-86
2022/03/22 09:40:32;;;;;;;11.40;3.22;;;22.40;99.90;;;;;;5093130;28;20024;-83
2022/03/22 09:42:59;;;;;;;9.13;2.80;;;22.30;99.90;;;;;;5091179;28;20021;-83
2022/03/22 09:45:29;;;;;;;11.80;2.78;;;22.40;99.90;;;;;;5091804;28;20023;-82
2022/03/22 09:47:59;;;;;;;12.20;3.30;;;22.30;99.90;;;;;;5095369;28;20024;-84
2022/03/22 09:53:15;;;;;;;5.80;2.60;;;22.20;99.90;;;;;;5095052;28;20158;-82
2022/03/22 09:55:43;;;;;;;9.93;3.03;;;22.20;99.90;;;;;;5095598;28;20025;-79
2022/03/22 09:58:11;;;;;;;9.05;2.78;;;22.20;99.90;;;;;;5095472;28;20020;-81
2022/03/22 10:00:38;;;;;;;10.77;2.97;;;22.20;99.90;;;;;;5095328;28;20414;-83
2022/03/22 10:03:06;;;;;;;10.95;2.70;;;22.20;99.90;;;;;;5095728;28;20015;-83
2022/03/22 10:05:34;;;;;;;11.90;3.15;;;22.10;99.90;;;;;;5093926;28;20118;-82
2022/03/22 10:08:07;;;;;;;8.13;2.80;;;22.10;99.90;;;;;;5093949;28;20012;-83
2022/03/22 10:10:36;;;;;;;6.85;2.78;;;22.10;99.90;;;;;;5093918;28;20106;-85
2022/03/22 10:13:05;;;;;;;11.38;2.72;;;22.00;99.90;;;;;;5093761;28;20044;-82
2022/03/22 10:15:37;;;;;;;8.00;2.95;;;22.00;99.90;;;;;;5095299;28;20519;-83
2022/03/22 10:18:09;;;;;;;8.85;3.08;;;22.00;99.90;;;;;;5094119;28;20499;-82
2022/03/22 10:20:39;;;;;;;10.18;2.72;;;22.00;99.90;;;;;;5095078;28;20059;-81
2022/03/22 10:23:12;;;;;;;12.57;3.38;;;22.00;99.90;;;;;;5094075;28;20073;-81
2022/03/22 10:25:41;;;;;;;11.23;3.13;;;21.90;99.90;;;;;;5097230;28;20020;-84
2022/03/22 10:28:10;;;;;;;7.82;2.42;;;21.90;99.90;;;;;;5096672;28;20043;-83
2022/03/22 10:30:38;;;;;;;8.45;2.88;;;21.90;99.90;;;;;;5095358;28;20016;-82
2022/03/22 10:33:07;;;;;;;6.78;2.90;;;21.90;99.90;;;;;;5095547;28;20032;-86
2022/03/22 10:35:37;;;;;;;9.38;3.45;;;21.80;99.90;;;;;;5081125;28;20056;-85
2022/03/22 10:38:07;;;;;;;8.47;2.30;;;21.80;99.90;;;;;;5096481;28;20080;-83
2022/03/22 10:40:40;;;;;;;12.23;3.28;;;21.70;99.90;;;;;;5093507;28;20016;-81
2022/03/22 10:43:23;;;;;;;11.15;3.38;;;21.70;99.90;;;;;;5094903;28;20121;-82
2022/03/22 10:46:04;;;;;;;10.93;3.15;;;21.70;99.90;;;;;;5093640;28;20020;-81
2022/03/22 10:48:34;;;;;;;8.88;3.15;;;21.70;99.90;;;;;;5093520;28;20020;-82
2022/03/22 10:51:05;;;;;;;12.73;2.97;;;21.60;99.90;;;;;;5095250;28;20111;-82
2022/03/22 10:53:35;;;;;;;8.50;2.67;;;21.60;99.90;;;;;;5094709;28;20024;-83
2022/03/22 10:56:04;;;;;;;9.85;3.25;;;21.60;99.90;;;;;;5093982;28;20024;-83
2022/03/22 10:58:34;;;;;;;9.23;2.70;;;21.50;99.90;;;;;;5094373;28;20028;-83
2022/03/22 11:01:06;;;;;;;13.27;3.13;;;21.50;99.90;;;;;;5094194;28;20326;-83
2022/03/22 11:03:50;;;;;;;6.30;2.63;;;21.50;99.90;;;;;;5094216;28;20024;-81
2022/03/22 11:06:20;;;;;;;8.50;2.95;;;21.50;99.90;;;;;;5094165;28;20484;-82
2022/03/22 11:08:47;;;;;;;7.38;3.10;;;21.50;99.90;;;;;;5094235;28;20494;-81
2022/03/22 11:11:15;;;;;;;7.88;3.10;;;21.40;99.90;;;;;;5094144;28;20028;-80
2022/03/22 11:13:43;;;;;;;7.05;2.75;;;21.40;99.90;;;;;;5094368;28;20028;-85
2022/03/22 11:16:10;;;;;;;8.18;2.75;;;21.30;99.90;;;;;;5093950;28;20085;-83
2022/03/22 11:18:38;;;;;;;11.48;3.65;;;21.30;99.90;;;;;;5096666;28;20028;-85
2022/03/22 11:21:06;;;;;;;8.55;2.75;;;21.30;99.90;;;;;;5094899;28;20024;-85
2022/03/22 11:23:38;;;;;;;8.82;3.75;;;21.30;99.90;;;;;;5094885;28;20415;-85
2022/03/22 11:26:11;;;;;;;7.22;2.83;;;21.30;99.90;;;;;;5096521;28;20429;-85
2022/03/22 11:28:39;;;;;;;10.88;3.55;;;21.20;99.90;;;;;;5094165;28;20028;-84
2022/03/22 11:31:11;;;;;;;9.73;2.85;;;21.20;99.90;;;;;;5095396;28;20024;-84
2022/03/22 11:36:36;;;;;;;7.35;2.72;;;21.20;99.90;;;;;;5095326;28;20043;-85
2022/03/22 11:39:05;;;;;;;7.75;2.92;;;21.10;99.90;;;;;;5093539;28;20109;-85
2022/03/22 11:44:38;;;;;;;9.00;3.17;;;21.00;99.90;;;;;;5095426;28;20035;-85
2022/03/22 11:47:16;;;;;;;12.13;3.40;;;21.00;99.90;;;;;;5094188;28;20044;-85
2022/03/22 11:49:51;;;;;;;9.90;3.20;;;21.10;99.90;;;;;;5092493;28;20027;-84
2022/03/22 11:52:39;;;;;;;6.03;3.30;;;21.00;99.90;;;;;;5092561;28;20027;-85
2022/03/22 11:55:07;;;;;;;10.00;3.58;;;21.00;99.90;;;;;;5093767;28;20028;-84
2022/03/22 11:58:10;;;;;;;7.78;2.78;;;21.00;99.90;;;;;;5093930;28;20031;-85
2022/03/22 12:00:47;;;;;;;8.55;3.20;;;21.00;99.90;;;;;;5093636;28;20075;-84
2022/03/22 12:03:16;;;;;;;9.18;3.45;;;21.00;99.90;;;;;;5093487;28;20019;-82
2022/03/22 12:05:44;;;;;;;8.15;3.33;;;21.00;99.90;;;;;;5091796;28;20507;-80
2022/03/22 12:08:19;;;;;;;9.23;2.63;;;21.00;99.90;;;;;;5092683;28;20484;-85
2022/03/22 12:10:51;;;;;;;7.55;2.88;;;21.10;99.90;;;;;;5092188;28;20032;-84
2022/03/22 12:13:19;;;;;;;9.15;3.05;;;21.00;99.90;;;;;;5093242;28;20031;-84
2022/03/22 12:15:47;;;;;;;7.95;2.90;;;21.10;99.90;;;;;;5093655;28;20500;-85
2022/03/22 12:18:15;;;;;;;12.98;3.70;;;21.00;99.90;;;;;;5092328;28;20503;-83
2022/03/22 12:20:44;;;;;;;8.35;3.00;;;21.10;99.90;;;;;;5093034;28;20081;-84
2022/03/22 12:23:11;;;;;;;8.50;3.50;;;21.10;99.90;;;;;;5091721;28;20020;-85
2022/03/22 12:25:38;;;;;;;9.27;3.33;;;21.20;99.90;;;;;;5093077;28;20024;-84
2022/03/22 12:28:09;;;;;;;9.85;3.40;;;21.20;99.90;;;;;;5091734;28;20098;-84
2022/03/22 12:30:38;;;;;;;8.68;3.15;;;21.10;99.90;;;;;;5091593;28;20062;-84
2022/03/22 12:33:13;;;;;;;8.10;3.00;;;21.20;99.90;;;;;;5091510;28;20081;-83
2022/03/22 12:35:42;;;;;;;9.43;3.13;;;21.20;99.90;;;;;;5092731;28;20048;-84
2022/03/22 12:38:10;;;;;;;8.98;3.47;;;21.10;99.90;;;;;;5091387;28;20081;-84
2022/03/22 12:40:39;;;;;;;8.75;3.03;;;21.10;99.90;;;;;;5092632;28;20079;-84
2022/03/22 12:43:11;;;;;;;8.80;4.20;;;21.10;99.90;;;;;;5092617;28;20387;-82
2022/03/22 12:45:45;;;;;;;9.60;3.47;;;21.10;99.90;;;;;;5092786;28;20046;-84
2022/03/22 12:48:16;;;;;;;6.10;3.10;;;21.10;99.90;;;;;;5092568;28;20024;-84
2022/03/22 12:50:44;;;;;;;5.70;2.90;;;21.10;99.90;;;;;;5092664;28;20020;-85
2022/03/22 12:53:12;;;;;;;5.35;2.67;;;21.10;99.90;;;;;;5074688;28;20478;-84
2022/03/22 12:55:42;;;;;;;6.78;2.53;;;21.10;99.90;;;;;;5091292;28;20024;-85
2022/03/22 12:58:10;;;;;;;6.05;3.08;;;21.10;99.90;;;;;;5091271;28;20053;-84
2022/03/22 13:00:39;;;;;;;6.97;3.15;;;21.10;99.90;;;;;;5092617;28;20063;-83
2022/03/22 13:03:16;;;;;;;5.72;2.97;;;21.10;99.90;;;;;;5091156;28;20020;-84
2022/03/22 13:05:47;;;;;;;4.97;3.20;;;21.10;99.90;;;;;;5091147;28;20115;-84
2022/03/22 13:08:18;;;;;;;;;;;21.10;99.90;;;;;;5091906;28;20480;-85
2022/03/22 13:16:26;;;;;;;3.97;2.53;;;21.10;99.90;;;;;;5093170;28;20062;-83
2022/03/22 13:18:58;;;;;;;6.40;2.75;;;21.00;99.90;;;;;;5091288;28;20074;-85
2022/03/22 13:21:29;;;;;;;5.75;2.60;;;21.00;99.90;;;;;;5095151;28;20115;-85
2022/03/22 13:24:03;;;;;;;6.78;3.22;;;21.00;99.90;;;;;;5095308;28;20444;-85
2022/03/22 13:26:32;;;;;;;6.85;3.05;;;21.00;99.90;;;;;;5095328;28;20021;-85
2022/03/22 13:29:10;;;;;;;6.70;2.85;;;21.00;99.90;;;;;;5095082;28;20069;-85
2022/03/22 13:31:37;;;;;;;5.40;2.85;;;20.90;99.90;;;;;;5096240;28;20024;-85
2022/03/22 13:34:04;;;;;;;5.38;2.80;;;20.90;99.90;;;;;;5094848;28;20481;-85